sensor_id;sensor_type;location;lat;lon;timestamp;pressure;altitude;pressure_sealevel;temperature;humidity
27958;BME280;15295;42.658;23.374;2023-06-10T00:01:12;94253.13;;;23.43;57.94
27958;BME280;15295;42.658;23.374;2023-06-10T00:03:38;94244.88;;;23.34;57.89
27958;BME280;15295;42.658;23.374;2023-06-10T00:06:04;94214.59;;;23.27;57.88
27958;BME280;15295;42.658;23.374;2023-06-10T00:08:31;94242.72;;;23.43;57.74
27958;BME280;15295;42.658;23.374;2023-06-10T00:10:58;94241.41;;;23.39;57.70
27958;BME280;15295;42.658;23.374;2023-06-10T00:13:23;94247.34;;;23.32;57.66
27958;BME280;15295;42.658;23.374;2023-06-10T00:15:49;94244.78;;;23.28;58.21
27958;BME280;15295;42.658;23.374;2023-06-10T00:18:29;94232.88;;;23.28;57.67
27958;BME280;15295;42.658;23.374;2023-06-10T00:20:57;94246.00;;;23.42;57.47
27958;BME280;15295;42.658;23.374;2023-06-10T00:23:22;94225.06;;;23.32;57.47
27958;BME280;15295;42.658;23.374;2023-06-10T00:25:50;94258.28;;;23.50;57.47
27958;BME280;15295;42.658;23.374;2023-06-10T00:28:15;94252.44;;;23.48;57.39
27958;BME280;15295;42.658;23.374;2023-06-10T00:30:42;94250.88;;;23.47;57.33
27958;BME280;15295;42.658;23.374;2023-06-10T00:33:08;94248.78;;;23.42;57.27
27958;BME280;15295;42.658;23.374;2023-06-10T00:35:34;94244.78;;;23.28;57.65
27958;BME280;15295;42.658;23.374;2023-06-10T00:38:00;94245.56;;;23.29;57.59
27958;BME280;15295;42.658;23.374;2023-06-10T00:40:38;94251.59;;;23.27;57.63
27958;BME280;15295;42.658;23.374;2023-06-10T00:43:09;94262.97;;;23.24;58.07
27958;BME280;15295;42.658;23.374;2023-06-10T00:45:34;94246.47;;;23.20;58.07
27958;BME280;15295;42.658;23.374;2023-06-10T00:48:01;94250.56;;;23.25;57.87
27958;BME280;15295;42.658;23.374;2023-06-10T00:50:27;94235.31;;;23.20;57.89
27958;BME280;15295;42.658;23.374;2023-06-10T00:52:56;94263.31;;;23.31;58.24
27958;BME280;15295;42.658;23.374;2023-06-10T00:55:30;94236.28;;;23.17;58.15
27958;BME280;15295;42.658;23.374;2023-06-10T00:57:57;94236.22;;;23.12;58.10
27958;BME280;15295;42.658;23.374;2023-06-10T01:00:26;94238.13;;;23.06;57.81
27958;BME280;15295;42.658;23.374;2023-06-10T01:02:57;94227.47;;;23.04;58.28
27958;BME280;15295;42.658;23.374;2023-06-10T01:05:23;94236.50;;;23.14;57.96
27958;BME280;15295;42.658;23.374;2023-06-10T01:08:09;94235.16;;;23.09;58.20
27958;BME280;15295;42.658;23.374;2023-06-10T01:10:50;94235.63;;;23.08;58.42
27958;BME280;15295;42.658;23.374;2023-06-10T01:13:17;94265.81;;;23.29;57.99
27958;BME280;15295;42.658;23.374;2023-06-10T01:15:47;94241.84;;;23.17;57.89
27958;BME280;15295;42.658;23.374;2023-06-10T01:18:15;94258.50;;;23.32;58.42
27958;BME280;15295;42.658;23.374;2023-06-10T01:20:49;94258.34;;;23.21;58.45
27958;BME280;15295;42.658;23.374;2023-06-10T01:23:17;94256.28;;;23.16;58.76
27958;BME280;15295;42.658;23.374;2023-06-10T01:25:49;94238.56;;;22.98;58.90
27958;BME280;15295;42.658;23.374;2023-06-10T01:28:25;94259.34;;;23.18;59.23
27958;BME280;15295;42.658;23.374;2023-06-10T01:30:59;94266.16;;;23.17;59.09
27958;BME280;15295;42.658;23.374;2023-06-10T01:33:47;94260.75;;;23.28;58.72
27958;BME280;15295;42.658;23.374;2023-06-10T01:36:15;94257.97;;;23.28;58.62
27958;BME280;15295;42.658;23.374;2023-06-10T01:38:46;94255.16;;;23.28;58.73
27958;BME280;15295;42.658;23.374;2023-06-10T01:41:17;94259.19;;;23.27;58.48
27958;BME280;15295;42.658;23.374;2023-06-10T01:43:44;94247.69;;;23.19;58.66
27958;BME280;15295;42.658;23.374;2023-06-10T01:46:10;94241.69;;;23.06;58.88
27958;BME280;15295;42.658;23.374;2023-06-10T01:48:37;94251.25;;;23.20;58.93
27958;BME280;15295;42.658;23.374;2023-06-10T01:51:02;94247.41;;;23.17;58.92
27958;BME280;15295;42.658;23.374;2023-06-10T01:53:28;94226.22;;;23.05;59.12
27958;BME280;15295;42.658;23.374;2023-06-10T01:55:53;94239.06;;;23.17;59.10
27958;BME280;15295;42.658;23.374;2023-06-10T01:58:20;94238.00;;;23.15;58.98
27958;BME280;15295;42.658;23.374;2023-06-10T02:00:45;94242.63;;;23.18;58.90
27958;BME280;15295;42.658;23.374;2023-06-10T02:03:11;94226.31;;;23.11;58.95
27958;BME280;15295;42.658;23.374;2023-06-10T02:05:36;94231.94;;;23.16;59.09
27958;BME280;15295;42.658;23.374;2023-06-10T02:08:02;94238.09;;;23.20;59.04
27958;BME280;15295;42.658;23.374;2023-06-10T02:10:33;94235.38;;;23.26;59.03
27958;BME280;15295;42.658;23.374;2023-06-10T02:12:59;94238.56;;;23.19;59.44
27958;BME280;15295;42.658;23.374;2023-06-10T02:15:25;94233.69;;;23.14;59.33
27958;BME280;15295;42.658;23.374;2023-06-10T02:17:52;94217.00;;;22.99;59.27
27958;BME280;15295;42.658;23.374;2023-06-10T02:20:18;94236.28;;;23.17;59.02
27958;BME280;15295;42.658;23.374;2023-06-10T02:22:43;94229.38;;;23.13;58.88
27958;BME280;15295;42.658;23.374;2023-06-10T02:25:09;94227.88;;;22.97;59.61
27958;BME280;15295;42.658;23.374;2023-06-10T02:27:35;94210.31;;;22.91;59.64
27958;BME280;15295;42.658;23.374;2023-06-10T02:30:00;94209.22;;;23.03;59.14
27958;BME280;15295;42.658;23.374;2023-06-10T02:32:25;94201.56;;;22.98;59.43
27958;BME280;15295;42.658;23.374;2023-06-10T02:34:52;94204.41;;;23.03;59.34
27958;BME280;15295;42.658;23.374;2023-06-10T02:37:17;94216.97;;;23.14;59.27
27958;BME280;15295;42.658;23.374;2023-06-10T02:39:43;94209.16;;;23.18;59.12
27958;BME280;15295;42.658;23.374;2023-06-10T02:42:08;94215.44;;;23.13;59.36
27958;BME280;15295;42.658;23.374;2023-06-10T02:44:34;94209.03;;;23.07;59.08
27958;BME280;15295;42.658;23.374;2023-06-10T02:46:59;94201.78;;;23.15;58.49
27958;BME280;15295;42.658;23.374;2023-06-10T02:49:25;94209.50;;;23.25;58.85
27958;BME280;15295;42.658;23.374;2023-06-10T02:52:01;94211.06;;;23.26;59.29
27958;BME280;15295;42.658;23.374;2023-06-10T02:54:27;94213.13;;;23.31;59.08
27958;BME280;15295;42.658;23.374;2023-06-10T02:56:52;94209.41;;;23.34;59.22
27958;BME280;15295;42.658;23.374;2023-06-10T02:59:18;94189.88;;;23.34;58.99
27958;BME280;15295;42.658;23.374;2023-06-10T03:01:44;94198.81;;;23.38;59.23
27958;BME280;15295;42.658;23.374;2023-06-10T03:04:10;94200.81;;;23.38;59.04
27958;BME280;15295;42.658;23.374;2023-06-10T03:06:40;94209.81;;;23.47;58.82
27958;BME280;15295;42.658;23.374;2023-06-10T03:09:10;94211.16;;;23.52;58.68
27958;BME280;15295;42.658;23.374;2023-06-10T03:11:36;94209.03;;;23.47;58.35
27958;BME280;15295;42.658;23.374;2023-06-10T03:14:02;94200.34;;;23.39;58.38
27958;BME280;15295;42.658;23.374;2023-06-10T03:16:27;94211.06;;;23.46;58.51
27958;BME280;15295;42.658;23.374;2023-06-10T03:18:53;94210.31;;;23.46;58.23
27958;BME280;15295;42.658;23.374;2023-06-10T03:21:20;94199.91;;;23.46;58.40
27958;BME280;15295;42.658;23.374;2023-06-10T03:23:45;94222.44;;;23.63;57.88
27958;BME280;15295;42.658;23.374;2023-06-10T03:26:11;94212.94;;;23.55;58.02
27958;BME280;15295;42.658;23.374;2023-06-10T03:28:37;94223.13;;;23.58;58.56
27958;BME280;15295;42.658;23.374;2023-06-10T03:31:03;94231.22;;;23.56;58.75
27958;BME280;15295;42.658;23.374;2023-06-10T03:33:28;94208.53;;;23.48;58.98
27958;BME280;15295;42.658;23.374;2023-06-10T03:35:56;94205.22;;;23.44;58.74
27958;BME280;15295;42.658;23.374;2023-06-10T03:38:21;94237.63;;;23.62;58.91
27958;BME280;15295;42.658;23.374;2023-06-10T03:40:47;94243.44;;;23.58;59.58
27958;BME280;15295;42.658;23.374;2023-06-10T03:43:12;94226.81;;;23.49;59.57
27958;BME280;15295;42.658;23.374;2023-06-10T03:45:38;94230.13;;;23.48;59.40
27958;BME280;15295;42.658;23.374;2023-06-10T03:48:05;94248.38;;;23.69;59.25
27958;BME280;15295;42.658;23.374;2023-06-10T03:50:31;94243.16;;;23.56;59.26
27958;BME280;15295;42.658;23.374;2023-06-10T03:52:57;94240.84;;;23.55;59.22
27958;BME280;15295;42.658;23.374;2023-06-10T03:55:23;94229.53;;;23.44;59.18
27958;BME280;15295;42.658;23.374;2023-06-10T03:57:49;94233.38;;;23.46;59.05
27958;BME280;15295;42.658;23.374;2023-06-10T04:00:17;94236.72;;;23.50;59.02
27958;BME280;15295;42.658;23.374;2023-06-10T04:02:57;94242.44;;;23.61;59.31
27958;BME280;15295;42.658;23.374;2023-06-10T04:05:25;94215.81;;;23.40;58.97
27958;BME280;15295;42.658;23.374;2023-06-10T04:07:50;94228.63;;;23.52;59.18
27958;BME280;15295;42.658;23.374;2023-06-10T04:10:16;94208.72;;;23.39;59.52
27958;BME280;15295;42.658;23.374;2023-06-10T04:12:50;94238.59;;;23.59;59.61
27958;BME280;15295;42.658;23.374;2023-06-10T04:15:20;94235.81;;;23.59;59.11
27958;BME280;15295;42.658;23.374;2023-06-10T04:17:46;94217.69;;;23.49;58.77
27958;BME280;15295;42.658;23.374;2023-06-10T04:20:14;94240.47;;;23.67;58.64
27958;BME280;15295;42.658;23.374;2023-06-10T04:22:49;94247.91;;;23.76;58.72
27958;BME280;15295;42.658;23.374;2023-06-10T04:25:14;94236.06;;;23.61;58.46
27958;BME280;15295;42.658;23.374;2023-06-10T04:27:39;94249.88;;;23.70;58.50
27958;BME280;15295;42.658;23.374;2023-06-10T04:30:05;94223.41;;;23.60;58.45
27958;BME280;15295;42.658;23.374;2023-06-10T04:32:31;94253.22;;;23.74;58.37
27958;BME280;15295;42.658;23.374;2023-06-10T04:34:56;94241.25;;;23.68;58.37
27958;BME280;15295;42.658;23.374;2023-06-10T04:37:22;94255.19;;;23.68;58.46
27958;BME280;15295;42.658;23.374;2023-06-10T04:39:47;94254.91;;;23.66;58.19
27958;BME280;15295;42.658;23.374;2023-06-10T04:42:19;94252.41;;;23.68;58.34
27958;BME280;15295;42.658;23.374;2023-06-10T04:44:45;94232.28;;;23.58;58.36
27958;BME280;15295;42.658;23.374;2023-06-10T04:47:11;94231.63;;;23.49;58.43
27958;BME280;15295;42.658;23.374;2023-06-10T04:49:37;94237.00;;;23.52;58.62
27958;BME280;15295;42.658;23.374;2023-06-10T04:52:03;94249.56;;;23.62;58.43
27958;BME280;15295;42.658;23.374;2023-06-10T04:54:30;94247.94;;;23.56;58.58
27958;BME280;15295;42.658;23.374;2023-06-10T04:56:55;94240.88;;;23.20;59.37
27958;BME280;15295;42.658;23.374;2023-06-10T04:59:22;94245.31;;;23.12;59.41
27958;BME280;15295;42.658;23.374;2023-06-10T05:01:48;94254.84;;;23.06;59.33
27958;BME280;15295;42.658;23.374;2023-06-10T05:04:16;94253.22;;;22.99;59.19
27958;BME280;15295;42.658;23.374;2023-06-10T05:06:41;94243.41;;;22.83;59.26
27958;BME280;15295;42.658;23.374;2023-06-10T05:09:07;94238.44;;;22.44;60.59
27958;BME280;15295;42.658;23.374;2023-06-10T05:11:34;94249.53;;;22.58;60.16
27958;BME280;15295;42.658;23.374;2023-06-10T05:14:01;94250.91;;;22.63;59.97
27958;BME280;15295;42.658;23.374;2023-06-10T05:16:27;94249.19;;;22.65;59.92
27958;BME280;15295;42.658;23.374;2023-06-10T05:18:54;94237.75;;;22.63;59.97
27958;BME280;15295;42.658;23.374;2023-06-10T05:21:25;94219.22;;;22.46;60.25
27958;BME280;15295;42.658;23.374;2023-06-10T05:24:04;94238.53;;;22.64;60.53
27958;BME280;15295;42.658;23.374;2023-06-10T05:26:29;94237.09;;;22.68;60.28
27958;BME280;15295;42.658;23.374;2023-06-10T05:28:57;94244.28;;;22.75;60.61
27958;BME280;15295;42.658;23.374;2023-06-10T05:31:23;94243.78;;;22.76;60.36
27958;BME280;15295;42.658;23.374;2023-06-10T05:33:52;94238.50;;;22.78;60.54
27958;BME280;15295;42.658;23.374;2023-06-10T05:36:31;94241.00;;;22.76;60.70
27958;BME280;15295;42.658;23.374;2023-06-10T05:39:04;94229.47;;;22.83;60.76
27958;BME280;15295;42.658;23.374;2023-06-10T05:41:36;94243.97;;;23.08;60.36
27958;BME280;15295;42.658;23.374;2023-06-10T05:44:01;94238.69;;;23.10;60.46
27958;BME280;15295;42.658;23.374;2023-06-10T05:46:27;94240.88;;;23.20;60.57
27958;BME280;15295;42.658;23.374;2023-06-10T05:48:52;94253.38;;;23.45;60.56
27958;BME280;15295;42.658;23.374;2023-06-10T05:51:17;94254.78;;;23.55;60.37
27958;BME280;15295;42.658;23.374;2023-06-10T05:53:53;94258.69;;;23.63;60.42
27958;BME280;15295;42.658;23.374;2023-06-10T05:56:18;94261.03;;;23.70;60.07
27958;BME280;15295;42.658;23.374;2023-06-10T05:58:44;94244.66;;;23.77;59.52
27958;BME280;15295;42.658;23.374;2023-06-10T06:01:09;94256.28;;;23.96;59.51
27958;BME280;15295;42.658;23.374;2023-06-10T06:03:36;94248.59;;;23.91;59.64
27958;BME280;15295;42.658;23.374;2023-06-10T06:06:04;94256.47;;;24.13;58.94
27958;BME280;15295;42.658;23.374;2023-06-10T06:08:31;94259.06;;;24.16;59.36
27958;BME280;15295;42.658;23.374;2023-06-10T06:11:02;94258.41;;;24.27;58.77
27958;BME280;15295;42.658;23.374;2023-06-10T06:13:38;94236.25;;;24.23;58.77
27958;BME280;15295;42.658;23.374;2023-06-10T06:16:13;94258.81;;;24.45;58.40
27958;BME280;15295;42.658;23.374;2023-06-10T06:18:41;94263.13;;;24.46;58.09
27958;BME280;15295;42.658;23.374;2023-06-10T06:21:07;94264.59;;;24.68;57.69
27958;BME280;15295;42.658;23.374;2023-06-10T06:23:34;94258.28;;;24.73;57.52
27958;BME280;15295;42.658;23.374;2023-06-10T06:25:59;94232.75;;;24.60;57.32
27958;BME280;15295;42.658;23.374;2023-06-10T06:28:25;94253.78;;;24.81;57.01
27958;BME280;15295;42.658;23.374;2023-06-10T06:30:55;94263.81;;;24.93;56.73
27958;BME280;15295;42.658;23.374;2023-06-10T06:33:20;94265.13;;;25.03;56.52
27958;BME280;15295;42.658;23.374;2023-06-10T06:35:48;94260.25;;;24.98;56.27
27958;BME280;15295;42.658;23.374;2023-06-10T06:38:13;94269.47;;;25.04;56.12
27958;BME280;15295;42.658;23.374;2023-06-10T06:40:38;94262.41;;;25.08;56.15
27958;BME280;15295;42.658;23.374;2023-06-10T06:43:04;94251.16;;;25.03;56.33
27958;BME280;15295;42.658;23.374;2023-06-10T06:45:29;94250.00;;;25.20;56.33
27958;BME280;15295;42.658;23.374;2023-06-10T06:47:55;94261.81;;;25.41;55.87
27958;BME280;15295;42.658;23.374;2023-06-10T06:50:23;94255.25;;;25.50;55.85
27958;BME280;15295;42.658;23.374;2023-06-10T06:52:48;94236.19;;;25.48;55.50
27958;BME280;15295;42.658;23.374;2023-06-10T06:55:16;94248.22;;;25.60;54.58
27958;BME280;15295;42.658;23.374;2023-06-10T07:11:18;94246.09;;;26.08;51.49
27958;BME280;15295;42.658;23.374;2023-06-10T07:16:20;94226.97;;;26.07;51.50
27958;BME280;15295;42.658;23.374;2023-06-10T07:18:46;94238.22;;;26.29;51.27
27958;BME280;15295;42.658;23.374;2023-06-10T07:21:12;94209.44;;;26.23;50.86
27958;BME280;15295;42.658;23.374;2023-06-10T07:23:43;94214.31;;;26.44;49.91
27958;BME280;15295;42.658;23.374;2023-06-10T07:26:10;94234.94;;;26.69;50.09
27958;BME280;15295;42.658;23.374;2023-06-10T07:28:39;94204.34;;;26.71;48.72
27958;BME280;15295;42.658;23.374;2023-06-10T07:31:05;94225.25;;;27.03;48.89
27958;BME280;15295;42.658;23.374;2023-06-10T07:33:30;94235.44;;;27.28;48.23
27958;BME280;15295;42.658;23.374;2023-06-10T07:36:18;94225.69;;;27.52;47.93
27958;BME280;15295;42.658;23.374;2023-06-10T07:38:45;94225.09;;;27.70;46.64
27958;BME280;15295;42.658;23.374;2023-06-10T07:44:59;94232.69;;;27.86;46.61
27958;BME280;15295;42.658;23.374;2023-06-10T07:47:25;94208.63;;;27.96;46.32
27958;BME280;15295;42.658;23.374;2023-06-10T07:49:54;94202.50;;;28.03;45.18
27958;BME280;15295;42.658;23.374;2023-06-10T07:52:57;94201.00;;;28.37;45.18
27958;BME280;15295;42.658;23.374;2023-06-10T07:56:06;94240.97;;;28.95;42.98
27958;BME280;15295;42.658;23.374;2023-06-10T08:01:43;94239.72;;;28.90;42.40
27958;BME280;15295;42.658;23.374;2023-06-10T08:12:56;94191.91;;;29.39;39.59
27958;BME280;15295;42.658;23.374;2023-06-10T08:15:27;94216.78;;;29.83;38.82
27958;BME280;15295;42.658;23.374;2023-06-10T08:17:52;94205.50;;;30.02;38.40
27958;BME280;15295;42.658;23.374;2023-06-10T08:20:18;94228.38;;;30.35;36.89
27958;BME280;15295;42.658;23.374;2023-06-10T08:37:46;94202.56;;;30.31;35.41
27958;BME280;15295;42.658;23.374;2023-06-10T08:40:43;94191.56;;;30.46;33.24
27958;BME280;15295;42.658;23.374;2023-06-10T09:32:06;94128.66;;;31.88;29.81
27958;BME280;15295;42.658;23.374;2023-06-10T09:34:39;94180.94;;;32.08;28.93
27958;BME280;15295;42.658;23.374;2023-06-10T09:37:19;94146.81;;;31.79;28.39
27958;BME280;15295;42.658;23.374;2023-06-10T09:40:11;94176.69;;;31.88;28.84
27958;BME280;15295;42.658;23.374;2023-06-10T09:45:40;94168.97;;;32.02;29.36
27958;BME280;15295;42.658;23.374;2023-06-10T09:48:22;94151.44;;;32.16;29.66
27958;BME280;15295;42.658;23.374;2023-06-10T09:51:13;94129.09;;;31.92;29.26
27958;BME280;15295;42.658;23.374;2023-06-10T09:54:07;94156.91;;;32.35;29.59
27958;BME280;15295;42.658;23.374;2023-06-10T09:56:39;94123.59;;;32.20;29.72
27958;BME280;15295;42.658;23.374;2023-06-10T09:59:08;94114.97;;;32.26;29.56
27958;BME280;15295;42.658;23.374;2023-06-10T10:01:36;94128.16;;;32.44;29.35
27958;BME280;15295;42.658;23.374;2023-06-10T10:04:11;94110.53;;;32.38;28.74
27958;BME280;15295;42.658;23.374;2023-06-10T10:06:42;94117.06;;;32.46;27.81
27958;BME280;15295;42.658;23.374;2023-06-10T10:09:11;94128.44;;;32.33;28.89
27958;BME280;15295;42.658;23.374;2023-06-10T10:11:37;94120.34;;;32.37;29.57
27958;BME280;15295;42.658;23.374;2023-06-10T10:14:15;94109.56;;;32.48;29.51
27958;BME280;15295;42.658;23.374;2023-06-10T10:16:44;94127.50;;;32.72;29.02
27958;BME280;15295;42.658;23.374;2023-06-10T10:19:18;94139.63;;;32.80;28.82
27958;BME280;15295;42.658;23.374;2023-06-10T10:21:54;94116.50;;;32.68;28.16
27958;BME280;15295;42.658;23.374;2023-06-10T10:25:08;94148.59;;;32.70;28.30
27958;BME280;15295;42.658;23.374;2023-06-10T10:27:48;94100.41;;;32.42;28.57
27958;BME280;15295;42.658;23.374;2023-06-10T10:30:20;94089.31;;;32.24;28.57
27958;BME280;15295;42.658;23.374;2023-06-10T10:36:04;94094.66;;;32.48;29.05
27958;BME280;15295;42.658;23.374;2023-06-10T10:38:41;94102.75;;;32.93;28.85
27958;BME280;15295;42.658;23.374;2023-06-10T10:41:13;94087.38;;;33.01;29.06
27958;BME280;15295;42.658;23.374;2023-06-10T10:43:44;94102.44;;;33.24;28.55
27958;BME280;15295;42.658;23.374;2023-06-10T10:46:13;94095.47;;;33.25;28.78
27958;BME280;15295;42.658;23.374;2023-06-10T10:57:18;94095.03;;;32.93;29.61
27958;BME280;15295;42.658;23.374;2023-06-10T11:00:06;94113.06;;;33.03;29.37
27958;BME280;15295;42.658;23.374;2023-06-10T11:03:06;94113.88;;;32.70;30.16
27958;BME280;15295;42.658;23.374;2023-06-10T11:05:46;94100.66;;;32.65;29.13
27958;BME280;15295;42.658;23.374;2023-06-10T11:11:17;94090.91;;;32.74;29.42
27958;BME280;15295;42.658;23.374;2023-06-10T11:16:28;94085.81;;;32.51;28.85
27958;BME280;15295;42.658;23.374;2023-06-10T11:19:08;94084.94;;;32.56;28.61
27958;BME280;15295;42.658;23.374;2023-06-10T11:22:04;94074.72;;;32.53;28.37
27958;BME280;15295;42.658;23.374;2023-06-10T11:24:39;94051.50;;;32.34;27.97
27958;BME280;15295;42.658;23.374;2023-06-10T11:27:16;94071.19;;;32.60;28.39
27958;BME280;15295;42.658;23.374;2023-06-10T11:32:34;94056.06;;;33.07;27.61
27958;BME280;15295;42.658;23.374;2023-06-10T11:35:06;94053.63;;;33.39;27.70
27958;BME280;15295;42.658;23.374;2023-06-10T11:37:36;94040.13;;;33.53;27.47
27958;BME280;15295;42.658;23.374;2023-06-10T11:40:13;94069.69;;;33.80;27.38
27958;BME280;15295;42.658;23.374;2023-06-10T11:42:48;94056.28;;;33.88;27.45
27958;BME280;15295;42.658;23.374;2023-06-10T11:45:18;94042.09;;;33.88;27.10
27958;BME280;15295;42.658;23.374;2023-06-10T11:48:01;94064.06;;;33.95;26.51
27958;BME280;15295;42.658;23.374;2023-06-10T11:50:32;94039.41;;;33.60;26.96
27958;BME280;15295;42.658;23.374;2023-06-10T11:52:58;94053.56;;;33.60;27.41
27958;BME280;15295;42.658;23.374;2023-06-10T11:55:50;94066.06;;;33.72;27.16
27958;BME280;15295;42.658;23.374;2023-06-10T11:58:31;94038.97;;;33.56;27.02
27958;BME280;15295;42.658;23.374;2023-06-10T12:01:24;94058.47;;;33.67;26.75
27958;BME280;15295;42.658;23.374;2023-06-10T12:04:09;94039.69;;;33.49;26.98
27958;BME280;15295;42.658;23.374;2023-06-10T12:06:49;94055.25;;;33.55;26.94
27958;BME280;15295;42.658;23.374;2023-06-10T12:09:29;94045.50;;;33.43;26.40
27958;BME280;15295;42.658;23.374;2023-06-10T12:11:59;94027.94;;;33.01;26.32
27958;BME280;15295;42.658;23.374;2023-06-10T12:14:54;94051.53;;;32.83;26.44
27958;BME280;15295;42.658;23.374;2023-06-10T12:20:05;94027.19;;;32.52;27.07
27958;BME280;15295;42.658;23.374;2023-06-10T12:22:50;94034.63;;;32.62;27.51
27958;BME280;15295;42.658;23.374;2023-06-10T12:25:16;94035.44;;;32.70;27.84
27958;BME280;15295;42.658;23.374;2023-06-10T12:27:53;94041.25;;;32.93;27.88
27958;BME280;15295;42.658;23.374;2023-06-10T12:30:25;94048.16;;;33.05;27.34
27958;BME280;15295;42.658;23.374;2023-06-10T12:33:15;94031.75;;;33.11;27.13
27958;BME280;15295;42.658;23.374;2023-06-10T12:35:52;94028.03;;;33.16;26.50
27958;BME280;15295;42.658;23.374;2023-06-10T12:38:29;94033.88;;;33.18;26.35
27958;BME280;15295;42.658;23.374;2023-06-10T12:41:17;94007.50;;;32.95;25.64
27958;BME280;15295;42.658;23.374;2023-06-10T12:44:09;93991.72;;;32.79;25.73
27958;BME280;15295;42.658;23.374;2023-06-10T12:49:39;93975.88;;;32.48;25.16
27958;BME280;15295;42.658;23.374;2023-06-10T12:52:39;93980.59;;;32.53;25.42
27958;BME280;15295;42.658;23.374;2023-06-10T12:55:15;93969.44;;;32.47;25.89
27958;BME280;15295;42.658;23.374;2023-06-10T12:58:05;94028.31;;;32.77;26.17
27958;BME280;15295;42.658;23.374;2023-06-10T13:00:47;94013.34;;;32.69;26.49
27958;BME280;15295;42.658;23.374;2023-06-10T13:03:48;93972.19;;;32.40;26.47
27958;BME280;15295;42.658;23.374;2023-06-10T13:06:41;94022.06;;;32.79;27.25
27958;BME280;15295;42.658;23.374;2023-06-10T13:09:29;94014.84;;;32.70;26.56
27958;BME280;15295;42.658;23.374;2023-06-10T13:12:10;94007.91;;;32.71;26.60
27958;BME280;15295;42.658;23.374;2023-06-10T13:15:19;94032.25;;;32.74;26.43
27958;BME280;15295;42.658;23.374;2023-06-10T13:20:35;93997.38;;;32.51;26.04
27958;BME280;15295;42.658;23.374;2023-06-10T13:23:57;94027.88;;;32.65;25.56
27958;BME280;15295;42.658;23.374;2023-06-10T13:26:43;94023.03;;;32.53;25.75
27958;BME280;15295;42.658;23.374;2023-06-10T13:29:47;94040.47;;;32.44;26.51
27958;BME280;15295;42.658;23.374;2023-06-10T13:34:49;94054.34;;;32.14;28.29
27958;BME280;15295;42.658;23.374;2023-06-10T13:40:04;94020.88;;;31.24;31.02
27958;BME280;15295;42.658;23.374;2023-06-10T13:42:46;94003.66;;;30.75;32.18
27958;BME280;15295;42.658;23.374;2023-06-10T13:45:26;94030.88;;;30.60;32.99
27958;BME280;15295;42.658;23.374;2023-06-10T13:47:58;94042.84;;;30.34;33.45
27958;BME280;15295;42.658;23.374;2023-06-10T13:50:51;94038.91;;;29.92;34.22
27958;BME280;15295;42.658;23.374;2023-06-10T13:53:38;93987.66;;;29.25;34.92
27958;BME280;15295;42.658;23.374;2023-06-10T13:56:13;93986.13;;;29.05;35.84
27958;BME280;15295;42.658;23.374;2023-06-10T13:58:45;94012.41;;;28.89;36.32
27958;BME280;15295;42.658;23.374;2023-06-10T14:01:21;94018.59;;;28.63;37.38
27958;BME280;15295;42.658;23.374;2023-06-10T14:04:03;94040.47;;;28.70;37.48
27958;BME280;15295;42.658;23.374;2023-06-10T14:06:54;94039.09;;;28.58;38.14
27958;BME280;15295;42.658;23.374;2023-06-10T14:09:45;94065.63;;;28.63;38.38
27958;BME280;15295;42.658;23.374;2023-06-10T14:12:22;94038.69;;;28.43;38.61
27958;BME280;15295;42.658;23.374;2023-06-10T14:14:51;94051.84;;;28.30;38.54
27958;BME280;15295;42.658;23.374;2023-06-10T14:17:20;94054.16;;;28.31;38.61
27958;BME280;15295;42.658;23.374;2023-06-10T14:20:05;94100.41;;;28.60;38.35
27958;BME280;15295;42.658;23.374;2023-06-10T14:22:32;94051.34;;;28.31;38.50
27958;BME280;15295;42.658;23.374;2023-06-10T14:24:59;94065.47;;;28.50;38.09
27958;BME280;15295;42.658;23.374;2023-06-10T14:27:26;94098.81;;;28.64;38.63
27958;BME280;15295;42.658;23.374;2023-06-10T14:29:59;94093.41;;;28.72;37.96
27958;BME280;15295;42.658;23.374;2023-06-10T14:32:35;94072.00;;;28.63;37.82
27958;BME280;15295;42.658;23.374;2023-06-10T14:35:12;94039.84;;;28.59;36.99
27958;BME280;15295;42.658;23.374;2023-06-10T14:37:54;94055.53;;;28.73;37.70
27958;BME280;15295;42.658;23.374;2023-06-10T14:40:44;94022.75;;;28.51;37.63
27958;BME280;15295;42.658;23.374;2023-06-10T14:43:34;94074.09;;;28.81;37.20
27958;BME280;15295;42.658;23.374;2023-06-10T14:46:15;94014.44;;;28.40;37.22
27958;BME280;15295;42.658;23.374;2023-06-10T14:49:04;94018.94;;;28.49;37.06
27958;BME280;15295;42.658;23.374;2023-06-10T14:51:47;94069.28;;;29.00;35.96
27958;BME280;15295;42.658;23.374;2023-06-10T14:54:45;94057.94;;;28.87;36.38
27958;BME280;15295;42.658;23.374;2023-06-10T14:57:23;94026.88;;;28.74;36.61
27958;BME280;15295;42.658;23.374;2023-06-10T15:02:55;94058.63;;;28.93;36.74
27958;BME280;15295;42.658;23.374;2023-06-10T15:05:30;94034.16;;;28.88;36.19
27958;BME280;15295;42.658;23.374;2023-06-10T15:07:57;94007.69;;;28.78;36.08
27958;BME280;15295;42.658;23.374;2023-06-10T15:10:42;94045.41;;;29.07;36.33
27958;BME280;15295;42.658;23.374;2023-06-10T15:13:25;94004.78;;;28.84;36.32
27958;BME280;15295;42.658;23.374;2023-06-10T15:15:53;94011.66;;;28.88;36.23
27958;BME280;15295;42.658;23.374;2023-06-10T15:18:32;94029.63;;;29.04;36.30
27958;BME280;15295;42.658;23.374;2023-06-10T15:21:19;93983.72;;;28.72;36.12
27958;BME280;15295;42.658;23.374;2023-06-10T15:24:05;94029.63;;;29.04;35.65
27958;BME280;15295;42.658;23.374;2023-06-10T15:29:27;94023.91;;;29.10;34.40
27958;BME280;15295;42.658;23.374;2023-06-10T15:31:55;94049.34;;;29.23;34.81
27958;BME280;15295;42.658;23.374;2023-06-10T15:34:22;94021.81;;;28.91;36.45
27958;BME280;15295;42.658;23.374;2023-06-10T15:37:02;93989.72;;;28.63;39.33